Terminal Aerodrome Forecast
Issued by NWS

Home | Current Version | Previous Version | Text Only | Print | Product List | Glossary On
Versions: 1 2 3 4 5 6 7 8 9 10 11 12 13 14 15 16
092
FTUS43 KDVN 180919 AAA
TAFCID
TAF AMD
KCID 180919Z 1809/1906 01012KT 6SM BR OVC006
     FM181000 35015KT 3SM -RA BR OVC005
     FM181300 33017G27KT 3/4SM -RASN BR OVC012
     FM181700 31018G28KT P6SM BKN025
     FM182000 30020G30KT P6SM SKC=

USA.gov is the U.S. government's official web portal to all federal, state and local government web resources and services.